Time;durP1;ratioP1;P1;durP2;ratioP2;P2;SDS_P1;SDS_P2;PMS_P1;PMS_P2;Temp;Humidity;BMP_temperature;BMP_pressure;BME280_temperature;BME280_humidity;BME280_pressure;Samples;Min_cycle;Max_cycle;Signal;HPM_P1;HPM_P2
2022/05/07 00:00:54;;;;;;;8.23;7.33;;;;;;;;;;5025127;28;20216;-73
2022/05/07 00:03:23;;;;;;;9.87;8.40;;;;;;;;;;5032710;28;20200;-73
2022/05/07 00:05:52;;;;;;;9.13;8.20;;;;;;;;;;5033880;28;20269;-73
2022/05/07 00:08:21;;;;;;;9.73;7.70;;;;;;;;;;5033312;28;20219;-73
2022/05/07 00:10:49;;;;;;;9.27;8.37;;;;;;;;;;5029689;28;20231;-73
2022/05/07 00:13:17;;;;;;;9.17;7.97;;;;;;;;;;5032614;28;20659;-73
2022/05/07 00:18:28;;;;;;;8.00;7.20;;;;;;;;;;5032383;28;20314;-73
2022/05/07 00:20:58;;;;;;;8.37;7.57;;;;;;;;;;5032926;28;20200;-73
2022/05/07 00:23:26;;;;;;;7.63;6.83;;;;;;;;;;5031445;28;20729;-73
2022/05/07 00:25:55;;;;;;;8.07;7.30;;;;;;;;;;5029088;28;20321;-73
2022/05/07 00:28:23;;;;;;;7.37;6.60;;;;;;;;;;5032345;28;20224;-73
2022/05/07 00:30:52;;;;;;;7.03;6.43;;;;;;;;;;5024909;28;20761;-73
2022/05/07 00:33:20;;;;;;;8.00;6.80;;;;;;;;;;5015695;28;20208;-73
2022/05/07 00:35:48;;;;;;;7.50;6.80;;;;;;;;;;5029472;28;20203;-73
2022/05/07 00:38:18;;;;;;;9.07;6.93;;;;;;;;;;5032668;28;20228;-73
2022/05/07 00:40:46;;;;;;;8.37;7.27;;;;;;;;;;5032779;28;20207;-73
2022/05/07 00:43:17;;;;;;;8.67;7.63;;;;;;;;;;5029324;28;20201;-73
2022/05/07 00:45:46;;;;;;;8.40;7.40;;;;;;;;;;5032737;28;20246;-73
2022/05/07 00:48:15;;;;;;;8.23;7.37;;;;;;;;;;5033048;28;20234;-73
2022/05/07 00:53:31;;;;;;;8.63;7.13;;;;;;;;;;5027992;28;20208;-73
2022/05/07 00:55:59;;;;;;;8.60;7.77;;;;;;;;;;5032258;28;20191;-73
2022/05/07 00:58:28;;;;;;;7.60;6.83;;;;;;;;;;5030793;28;20224;-73
2022/05/07 01:00:56;;;;;;;7.70;7.00;;;;;;;;;;5032125;28;20655;-73
2022/05/07 01:03:25;;;;;;;8.83;8.00;;;;;;;;;;5031054;28;20206;-73
2022/05/07 01:05:53;;;;;;;8.27;7.13;;;;;;;;;;5032490;28;20211;-73
2022/05/07 01:08:22;;;;;;;9.77;7.93;;;;;;;;;;5031962;28;20683;-73
2022/05/07 01:10:52;;;;;;;8.93;8.13;;;;;;;;;;5032582;28;20269;-73
2022/05/07 01:13:21;;;;;;;9.50;8.47;;;;;;;;;;5029596;28;20219;-73
2022/05/07 01:15:49;;;;;;;9.80;8.47;;;;;;;;;;5032543;28;20254;-73
2022/05/07 01:18:18;;;;;;;9.07;8.17;;;;;;;;;;5032472;28;20223;-73
2022/05/07 01:20:46;;;;;;;9.30;8.23;;;;;;;;;;5030806;28;20199;-73
2022/05/07 01:23:17;;;;;;;9.37;8.33;;;;;;;;;;5030051;28;20199;-73
2022/05/07 01:25:45;;;;;;;8.60;7.73;;;;;;;;;;5029238;28;20573;-73
2022/05/07 01:28:13;;;;;;;9.07;8.23;;;;;;;;;;5032635;28;20278;-73
2022/05/07 01:30:42;;;;;;;8.80;8.00;;;;;;;;;;5032337;28;20223;-73
2022/05/07 01:33:10;;;;;;;11.93;8.97;;;;;;;;;;5031983;28;20287;-73
2022/05/07 01:35:39;;;;;;;8.97;8.13;;;;;;;;;;5037719;28;20204;-73
2022/05/07 01:38:07;;;;;;;8.80;7.53;;;;;;;;;;5036837;28;20224;-73
2022/05/07 01:40:37;;;;;;;8.90;7.70;;;;;;;;;;5036075;28;20203;-73
2022/05/07 01:43:05;;;;;;;9.53;8.63;;;;;;;;;;5027712;28;20199;-73
2022/05/07 01:45:34;;;;;;;8.87;8.10;;;;;;;;;;5035251;28;20211;-73
2022/05/07 01:48:10;;;;;;;9.37;8.47;;;;;;;;;;5034051;28;20230;-73
2022/05/07 01:50:39;;;;;;;10.37;9.37;;;;;;;;;;5034804;28;20227;-73
2022/05/07 01:53:08;;;;;;;10.13;9.07;;;;;;;;;;5030055;28;20197;-73
2022/05/07 01:55:38;;;;;;;11.23;10.13;;;;;;;;;;5032825;28;20200;-73
2022/05/07 01:58:06;;;;;;;11.43;10.23;;;;;;;;;;5034688;28;20726;-73
2022/05/07 02:00:35;;;;;;;11.30;9.67;;;;;;;;;;5035939;28;20207;-73
2022/05/07 02:03:04;;;;;;;10.63;9.63;;;;;;;;;;5035155;28;20612;-73
2022/05/07 02:05:32;;;;;;;10.80;9.17;;;;;;;;;;5034892;28;20298;-73
2022/05/07 02:08:01;;;;;;;9.80;8.90;;;;;;;;;;5034461;28;20228;-73
2022/05/07 02:10:30;;;;;;;9.53;8.30;;;;;;;;;;5035157;28;20203;-73
2022/05/07 02:13:01;;;;;;;10.10;9.00;;;;;;;;;;5033253;28;20250;-73
2022/05/07 02:15:30;;;;;;;11.10;9.20;;;;;;;;;;5033614;28;20287;-73
2022/05/07 02:17:58;;;;;;;9.07;8.13;;;;;;;;;;5034124;28;20565;-73
2022/05/07 02:20:27;;;;;;;9.23;8.43;;;;;;;;;;5035220;28;20213;-73
2022/05/07 02:22:57;;;;;;;9.83;8.83;;;;;;;;;;5032169;28;20222;-73
2022/05/07 02:25:25;;;;;;;10.17;8.67;;;;;;;;;;5032630;28;20838;-73
2022/05/07 02:27:54;;;;;;;10.13;9.13;;;;;;;;;;5035047;28;20223;-73
2022/05/07 02:30:24;;;;;;;9.90;8.90;;;;;;;;;;5032190;28;20215;-73
2022/05/07 02:32:52;;;;;;;10.17;9.20;;;;;;;;;;5036050;28;20220;-73
2022/05/07 02:35:21;;;;;;;11.60;10.40;;;;;;;;;;5037005;28;20203;-73
2022/05/07 02:37:50;;;;;;;10.93;9.93;;;;;;;;;;5031412;28;20682;-73
2022/05/07 02:40:18;;;;;;;11.57;10.20;;;;;;;;;;5034645;28;20204;-73
2022/05/07 02:42:46;;;;;;;11.67;9.93;;;;;;;;;;5027107;28;20256;-73
2022/05/07 02:45:15;;;;;;;11.67;10.40;;;;;;;;;;5034743;28;20215;-73
2022/05/07 02:47:45;;;;;;;12.43;11.10;;;;;;;;;;5033028;28;20227;-73
2022/05/07 02:50:13;;;;;;;12.80;10.10;;;;;;;;;;5032940;28;20214;-73
2022/05/07 02:52:42;;;;;;;9.67;8.73;;;;;;;;;;5035648;28;20650;-73
2022/05/07 02:55:10;;;;;;;11.10;8.27;;;;;;;;;;5032842;28;20204;-73
2022/05/07 02:57:39;;;;;;;10.70;9.47;;;;;;;;;;5034286;28;20253;-73
2022/05/07 03:00:08;;;;;;;10.53;9.53;;;;;;;;;;5034458;28;20208;-73
2022/05/07 03:02:36;;;;;;;12.63;10.03;;;;;;;;;;5032640;28;20669;-73
2022/05/07 03:05:07;;;;;;;11.07;9.53;;;;;;;;;;5033293;28;20206;-73
2022/05/07 03:07:35;;;;;;;11.30;10.20;;;;;;;;;;5034979;28;20224;-73
2022/05/07 03:10:04;;;;;;;10.87;9.43;;;;;;;;;;5034641;28;20200;-73
2022/05/07 03:12:32;;;;;;;10.53;9.53;;;;;;;;;;5033651;28;20227;-73
2022/05/07 03:15:01;;;;;;;10.27;9.27;;;;;;;;;;5032797;28;20204;-73
2022/05/07 03:17:29;;;;;;;10.87;9.87;;;;;;;;;;5033544;28;20238;-73
2022/05/07 03:19:57;;;;;;;12.17;10.87;;;;;;;;;;5034668;28;20196;-73
2022/05/07 03:22:28;;;;;;;11.93;10.73;;;;;;;;;;5034095;28;20200;-73
2022/05/07 03:24:57;;;;;;;12.17;10.97;;;;;;;;;;5031394;28;20201;-73
2022/05/07 03:27:27;;;;;;;12.63;11.33;;;;;;;;;;5033854;28;20227;-73
2022/05/07 03:29:55;;;;;;;12.60;11.40;;;;;;;;;;5025448;28;20223;-73
2022/05/07 03:32:24;;;;;;;11.43;10.33;;;;;;;;;;5030895;28;20232;-73
2022/05/07 03:34:53;;;;;;;12.27;11.07;;;;;;;;;;5032250;28;20260;-73
2022/05/07 03:37:21;;;;;;;12.47;11.00;;;;;;;;;;5033432;28;20302;-73
2022/05/07 03:39:51;;;;;;;13.77;11.30;;;;;;;;;;5036644;28;20199;-73
2022/05/07 03:42:20;;;;;;;13.60;11.10;;;;;;;;;;5032801;28;20203;-73
2022/05/07 03:44:48;;;;;;;13.90;10.60;;;;;;;;;;5031230;28;20706;-73
2022/05/07 03:47:17;;;;;;;14.13;10.97;;;;;;;;;;5032507;28;20288;-73
2022/05/07 03:49:46;;;;;;;12.03;10.87;;;;;;;;;;5028894;28;20698;-74
2022/05/07 03:55:01;;;;;;;12.67;11.10;;;;;;;;;;5032140;28;20222;-73
2022/05/07 03:57:30;;;;;;;11.77;10.57;;;;;;;;;;5032443;28;20226;-73
2022/05/07 04:00:00;;;;;;;13.67;11.90;;;;;;;;;;5033476;28;20601;-73
2022/05/07 04:02:31;;;;;;;13.10;11.23;;;;;;;;;;5032494;28;20199;-73
2022/05/07 04:05:00;;;;;;;14.13;12.00;;;;;;;;;;5033212;28;20208;-73
2022/05/07 04:07:28;;;;;;;12.80;11.50;;;;;;;;;;5033051;28;20232;-73
2022/05/07 04:09:56;;;;;;;12.50;11.20;;;;;;;;;;5032279;28;20200;-73
2022/05/07 04:12:27;;;;;;;12.17;10.97;;;;;;;;;;5033130;28;20319;-73
2022/05/07 04:14:59;;;;;;;11.30;10.30;;;;;;;;;;5030112;28;20215;-73
2022/05/07 04:17:28;;;;;;;11.33;10.13;;;;;;;;;;5034087;28;20223;-74
2022/05/07 04:19:56;;;;;;;12.60;11.33;;;;;;;;;;5033488;28;20200;-74
2022/05/07 04:22:25;;;;;;;12.27;11.07;;;;;;;;;;5031611;28;20214;-74
2022/05/07 04:24:53;;;;;;;12.80;11.57;;;;;;;;;;5027596;28;20200;-73
2022/05/07 04:27:22;;;;;;;14.13;12.63;;;;;;;;;;5033390;28;20215;-73
2022/05/07 04:29:52;;;;;;;13.40;12.00;;;;;;;;;;5032650;28;20203;-74
2022/05/07 04:32:20;;;;;;;14.73;12.80;;;;;;;;;;5031866;28;20604;-73
2022/05/07 04:34:49;;;;;;;13.43;12.23;;;;;;;;;;5031407;28;20659;-73
2022/05/07 04:37:17;;;;;;;12.73;11.53;;;;;;;;;;5032083;28;20220;-73
2022/05/07 04:39:47;;;;;;;12.77;11.57;;;;;;;;;;5020626;28;20207;-73
2022/05/07 04:42:15;;;;;;;13.90;12.60;;;;;;;;;;5031967;28;20204;-74
2022/05/07 04:44:44;;;;;;;14.17;12.67;;;;;;;;;;5034250;28;20208;-74
2022/05/07 04:47:13;;;;;;;14.30;12.80;;;;;;;;;;5031285;28;20227;-74
2022/05/07 04:49:42;;;;;;;13.67;12.30;;;;;;;;;;5032728;28;20208;-74
2022/05/07 04:52:10;;;;;;;15.33;12.70;;;;;;;;;;5033591;28;20212;-73
2022/05/07 04:54:39;;;;;;;17.53;15.77;;;;;;;;;;5030136;28;20207;-73
2022/05/07 04:57:07;;;;;;;17.57;15.97;;;;;;;;;;5031037;28;20224;-73
2022/05/07 04:59:35;;;;;;;18.20;16.40;;;;;;;;;;5035525;28;20265;-73
2022/05/07 05:02:04;;;;;;;18.60;16.63;;;;;;;;;;5021384;28;20726;-74
2022/05/07 05:04:34;;;;;;;17.80;16.00;;;;;;;;;;5031732;28;20674;-73
2022/05/07 05:07:02;;;;;;;18.57;16.70;;;;;;;;;;5031272;28;20224;-73
2022/05/07 05:09:31;;;;;;;17.67;15.80;;;;;;;;;;5034496;28;20800;-73
2022/05/07 05:11:59;;;;;;;18.07;16.27;;;;;;;;;;5036822;28;20200;-73
2022/05/07 05:17:13;;;;;;;21.90;19.70;;;;;;;;;;5036590;28;20223;-73
2022/05/07 05:19:44;;;;;;;25.63;19.43;;;;;;;;;;5039071;28;20207;-74
2022/05/07 05:22:12;;;;;;;21.33;19.13;;;;;;;;;;5039062;28;20226;-73
2022/05/07 05:24:40;;;;;;;24.47;22.17;;;;;;;;;;5036789;28;20257;-74
2022/05/07 05:27:09;;;;;;;24.40;22.10;;;;;;;;;;5038332;28;20748;-73
2022/05/07 05:29:37;;;;;;;27.83;25.13;;;;;;;;;;5037290;28;20204;-74
2022/05/07 05:32:06;;;;;;;28.47;25.67;;;;;;;;;;5037308;28;20663;-74
2022/05/07 05:34:35;;;;;;;29.70;26.87;;;;;;;;;;5033564;28;20203;-73
2022/05/07 05:37:05;;;;;;;34.87;31.30;;;;;;;;;;5039795;28;20265;-74
2022/05/07 05:39:33;;;;;;;30.87;27.97;;;;;;;;;;5040009;28;20258;-74
2022/05/07 05:42:02;;;;;;;30.57;27.63;;;;;;;;;;5034471;28;20716;-74
2022/05/07 05:44:30;;;;;;;29.77;26.77;;;;;;;;;;5038439;28;20203;-74
2022/05/07 05:46:59;;;;;;;27.33;24.70;;;;;;;;;;5036509;28;20721;-74
2022/05/07 05:49:27;;;;;;;27.37;24.70;;;;;;;;;;5038028;28;20750;-74
2022/05/07 05:51:56;;;;;;;27.17;24.57;;;;;;;;;;5032957;28;20208;-74
2022/05/07 05:54:26;;;;;;;25.90;23.40;;;;;;;;;;5032893;28;20580;-74
2022/05/07 05:56:54;;;;;;;25.70;23.20;;;;;;;;;;5042935;28;20265;-74
2022/05/07 05:59:23;;;;;;;27.37;24.47;;;;;;;;;;5036734;28;20204;-74
2022/05/07 06:01:51;;;;;;;29.50;26.47;;;;;;;;;;5025329;28;20207;-73
2022/05/07 06:04:20;;;;;;;32.13;28.83;;;;;;;;;;5027225;28;20192;-74
2022/05/07 06:06:48;;;;;;;31.10;28.17;;;;;;;;;;5041434;28;20287;-74
2022/05/07 06:09:17;;;;;;;30.40;27.23;;;;;;;;;;5037208;28;20738;-74
2022/05/07 06:11:47;;;;;;;30.53;27.53;;;;;;;;;;5037856;28;20211;-74
2022/05/07 06:14:15;;;;;;;28.93;26.13;;;;;;;;;;5036035;28;20346;-74
2022/05/07 06:16:44;;;;;;;27.93;24.73;;;;;;;;;;5035765;28;20199;-74
2022/05/07 06:19:13;;;;;;;26.33;23.43;;;;;;;;;;5031862;28;20206;-74
2022/05/07 06:21:41;;;;;;;25.90;23.23;;;;;;;;;;5032866;28;20200;-74
2022/05/07 06:29:53;;;;;;;20.83;18.73;;;;;;;;;;5034378;28;20200;-73
2022/05/07 06:32:21;;;;;;;19.50;17.50;;;;;;;;;;5033244;28;20200;-73
2022/05/07 06:34:50;;;;;;;19.20;17.20;;;;;;;;;;5031978;28;20231;-73
2022/05/07 06:37:18;;;;;;;17.90;15.90;;;;;;;;;;5030518;28;20226;-73
2022/05/07 06:39:46;;;;;;;19.97;16.07;;;;;;;;;;5030669;28;20200;-73
2022/05/07 06:42:16;;;;;;;17.90;16.03;;;;;;;;;;5032533;28;20228;-73
2022/05/07 06:44:45;;;;;;;23.23;18.60;;;;;;;;;;5034353;28;20196;-73
2022/05/07 06:47:14;;;;;;;17.60;15.90;;;;;;;;;;5035392;28;20219;-73
2022/05/07 06:49:43;;;;;;;18.93;16.93;;;;;;;;;;5033419;28;20652;-74
2022/05/07 06:52:11;;;;;;;19.47;17.47;;;;;;;;;;5033719;28;20208;-73
2022/05/07 06:54:40;;;;;;;17.90;16.20;;;;;;;;;;5031989;28;20260;-73
2022/05/07 06:57:08;;;;;;;19.87;17.73;;;;;;;;;;5015554;28;20631;-73
2022/05/07 06:59:38;;;;;;;20.97;18.77;;;;;;;;;;5015208;28;20211;-74
2022/05/07 07:02:06;;;;;;;20.73;18.60;;;;;;;;;;5030816;28;20281;-73
2022/05/07 07:04:35;;;;;;;20.27;18.27;;;;;;;;;;5032830;28;20203;-73
2022/05/07 07:07:04;;;;;;;18.47;16.00;;;;;;;;;;5034256;28;20682;-73
2022/05/07 07:09:32;;;;;;;19.73;17.60;;;;;;;;;;5034312;28;20652;-73
2022/05/07 07:12:00;;;;;;;18.63;15.60;;;;;;;;;;5033726;28;20338;-73
2022/05/07 07:14:29;;;;;;;16.07;14.47;;;;;;;;;;5033561;28;20219;-73
2022/05/07 07:16:59;;;;;;;16.23;14.63;;;;;;;;;;5033069;28;20232;-73
2022/05/07 07:19:27;;;;;;;15.10;13.60;;;;;;;;;;5029554;28;20212;-73
2022/05/07 07:21:56;;;;;;;14.43;13.03;;;;;;;;;;5026305;28;20277;-73
2022/05/07 07:24:25;;;;;;;14.37;12.97;;;;;;;;;;5031432;28;20616;-72
2022/05/07 07:26:53;;;;;;;13.93;12.53;;;;;;;;;;5032484;28;20208;-72
2022/05/07 07:29:23;;;;;;;15.47;13.93;;;;;;;;;;5027161;28;20603;-72
2022/05/07 07:31:53;;;;;;;16.53;14.13;;;;;;;;;;5030040;28;20243;-72
2022/05/07 07:34:23;;;;;;;15.00;13.50;;;;;;;;;;5030177;28;20259;-72
2022/05/07 07:36:51;;;;;;;15.00;12.37;;;;;;;;;;5028857;28;20254;-73
2022/05/07 07:39:20;;;;;;;14.70;12.70;;;;;;;;;;5030470;28;20208;-72
2022/05/07 07:41:48;;;;;;;14.13;12.80;;;;;;;;;;5027644;28;20973;-73
2022/05/07 07:44:17;;;;;;;15.00;13.40;;;;;;;;;;5027521;28;20196;-73
2022/05/07 07:49:33;;;;;;;14.98;13.48;;;;;;;;;;5026508;28;20208;-73
2022/05/07 07:52:01;;;;;;;14.20;12.18;;;;;;;;;;5024989;28;20200;-74
2022/05/07 07:54:36;;;;;;;14.55;11.85;;;;;;;;;;5025470;28;20219;-73
2022/05/07 07:57:04;;;;;;;14.18;12.65;;;;;;;;;;5023856;28;20215;-73
2022/05/07 07:59:33;;;;;;;14.38;12.85;;;;;;;;;;5025496;28;20218;-73
2022/05/07 08:02:01;;;;;;;15.38;12.70;;;;;;;;;;5023678;28;20199;-73
2022/05/07 08:04:30;;;;;;;13.93;12.52;;;;;;;;;;5030008;28;20203;-73
2022/05/07 08:12:33;;;;;;;13.80;12.40;;;;;;;;;;5025410;28;20246;-73
2022/05/07 08:15:01;;;;;;;12.93;11.60;;;;;;;;;;5031390;28;20261;-74
2022/05/07 08:17:30;;;;;;;12.45;11.20;;;;;;;;;;5030666;28;20223;-73
2022/05/07 08:19:58;;;;;;;13.60;11.63;;;;;;;;;;5025844;28;20617;-73
2022/05/07 08:22:29;;;;;;;13.57;11.38;;;;;;;;;;5031338;28;20629;-73
2022/05/07 08:24:57;;;;;;;12.20;11.00;;;;;;;;;;5030078;28;20196;-73
2022/05/07 08:27:28;;;;;;;11.45;10.27;;;;;;;;;;5032179;28;20242;-73
2022/05/07 08:30:11;;;;;;;11.05;9.95;;;;;;;;;;5028530;28;20219;-73
2022/05/07 08:32:44;;;;;;;12.25;10.95;;;;;;;;;;5032084;28;20659;-73
2022/05/07 08:35:20;;;;;;;12.80;10.40;;;;;;;;;;5032433;28;20219;-73
2022/05/07 08:37:57;;;;;;;11.70;10.38;;;;;;;;;;5025956;28;20227;-73
2022/05/07 08:40:27;;;;;;;12.90;10.13;;;;;;;;;;5030826;28;20298;-73
2022/05/07 08:42:56;;;;;;;10.23;9.15;;;;;;;;;;5031175;28;20207;-74
2022/05/07 08:45:25;;;;;;;10.85;9.77;;;;;;;;;;5028860;28;20204;-71
2022/05/07 08:47:54;;;;;;;11.23;10.18;;;;;;;;;;5032166;28;20227;-73
2022/05/07 08:50:23;;;;;;;12.05;10.75;;;;;;;;;;5031005;28;20203;-73
2022/05/07 08:52:52;;;;;;;13.95;9.98;;;;;;;;;;5032934;28;20199;-73
2022/05/07 08:55:22;;;;;;;11.23;10.23;;;;;;;;;;5028363;28;20223;-73
2022/05/07 08:57:51;;;;;;;11.23;10.13;;;;;;;;;;5031411;28;20630;-71
2022/05/07 09:00:21;;;;;;;10.55;9.20;;;;;;;;;;5031682;28;20682;-73
2022/05/07 09:02:52;;;;;;;12.40;9.10;;;;;;;;;;5031110;28;20639;-73
2022/05/07 09:05:22;;;;;;;11.13;9.82;;;;;;;;;;5029251;28;20196;-73
2022/05/07 09:07:54;;;;;;;9.20;8.25;;;;;;;;;;5032226;28;20231;-73
2022/05/07 09:10:26;;;;;;;8.88;7.93;;;;;;;;;;5028718;28;20200;-73
2022/05/07 09:12:54;;;;;;;10.35;8.57;;;;;;;;;;5030585;28;20212;-73
2022/05/07 09:15:23;;;;;;;9.77;8.55;;;;;;;;;;5027776;28;20220;-73
2022/05/07 09:17:51;;;;;;;9.73;7.95;;;;;;;;;;5022194;28;20235;-73
2022/05/07 09:20:21;;;;;;;9.48;7.43;;;;;;;;;;5031239;28;20211;-73
2022/05/07 09:22:50;;;;;;;7.45;6.65;;;;;;;;;;5031602;28;20612;-73
2022/05/07 09:25:22;;;;;;;18.30;7.57;;;;;;;;;;5031412;28;20242;-73
2022/05/07 09:27:54;;;;;;;6.60;5.90;;;;;;;;;;5030836;28;20258;-72
2022/05/07 09:30:23;;;;;;;10.38;7.63;;;;;;;;;;5031536;28;20211;-73
2022/05/07 09:32:53;;;;;;;9.70;8.10;;;;;;;;;;5031535;28;20210;-72
2022/05/07 09:38:10;;;;;;;8.80;7.75;;;;;;;;;;5025963;28;20227;-73
2022/05/07 09:40:40;;;;;;;10.63;8.48;;;;;;;;;;5028059;28;21212;-72
2022/05/07 09:43:11;;;;;;;9.23;8.30;;;;;;;;;;5032622;28;20204;-72
2022/05/07 09:45:40;;;;;;;8.57;7.78;;;;;;;;;;5031825;28;20253;-72
2022/05/07 09:48:12;;;;;;;9.63;8.63;;;;;;;;;;5030553;28;20224;-72
2022/05/07 09:50:46;;;;;;;11.50;9.25;;;;;;;;;;5030340;28;20608;-72
2022/05/07 09:58:51;;;;;;;9.50;8.55;;;;;;;;;;5028124;28;20215;-74
2022/05/07 10:01:25;;;;;;;9.90;8.40;;;;;;;;;;5034068;28;20207;-73
2022/05/07 10:03:57;;;;;;;11.48;9.02;;;;;;;;;;5031883;28;20204;-73
2022/05/07 10:06:32;;;;;;;10.95;9.18;;;;;;;;;;5034067;28;20196;-73
2022/05/07 10:09:08;;;;;;;9.32;8.32;;;;;;;;;;5028937;28;20252;-74
2022/05/07 10:11:37;;;;;;;11.55;9.35;;;;;;;;;;5030340;28;20261;-73
2022/05/07 10:14:07;;;;;;;12.38;8.63;;;;;;;;;;5032972;28;20258;-73
2022/05/07 10:16:36;;;;;;;11.57;9.23;;;;;;;;;;5034074;28;20225;-72
2022/05/07 10:19:11;;;;;;;10.57;9.43;;;;;;;;;;5035294;28;20203;-72
2022/05/07 10:21:39;;;;;;;10.73;9.65;;;;;;;;;;5036098;28;20257;-73
2022/05/07 10:24:09;;;;;;;11.15;9.90;;;;;;;;;;5035398;28;20208;-72
2022/05/07 10:26:39;;;;;;;9.77;8.82;;;;;;;;;;5036116;28;20627;-72
2022/05/07 10:29:09;;;;;;;10.80;8.82;;;;;;;;;;5038926;28;20207;-72
2022/05/07 10:31:45;;;;;;;10.13;9.13;;;;;;;;;;5033174;28;20686;-72
2022/05/07 10:34:25;;;;;;;9.80;8.80;;;;;;;;;;5035018;28;20207;-72
2022/05/07 10:37:01;;;;;;;10.50;8.10;;;;;;;;;;5032809;28;20220;-72
2022/05/07 10:39:30;;;;;;;12.55;8.73;;;;;;;;;;5034037;28;20721;-73
2022/05/07 10:42:00;;;;;;;11.00;8.90;;;;;;;;;;5033762;28;21126;-73
2022/05/07 10:44:34;;;;;;;11.30;9.77;;;;;;;;;;5026041;28;20207;-73
2022/05/07 10:47:10;;;;;;;10.32;8.65;;;;;;;;;;5024733;28;20231;-72
2022/05/07 10:49:50;;;;;;;15.05;9.10;;;;;;;;;;5033642;28;20210;-72
2022/05/07 10:52:28;;;;;;;11.20;7.15;;;;;;;;;;5021723;28;20596;-72
2022/05/07 10:55:05;;;;;;;9.63;7.75;;;;;;;;;;5032958;28;20204;-72
2022/05/07 10:57:43;;;;;;;9.05;7.60;;;;;;;;;;5033831;28;20239;-72
2022/05/07 11:00:16;;;;;;;8.73;7.55;;;;;;;;;;5030247;28;20214;-72
2022/05/07 11:02:45;;;;;;;24.45;9.38;;;;;;;;;;5029673;28;20204;-74
2022/05/07 11:05:13;;;;;;;10.63;9.10;;;;;;;;;;5034168;28;20215;-72
2022/05/07 11:07:42;;;;;;;10.20;8.68;;;;;;;;;;5034345;28;20228;-72
2022/05/07 11:10:11;;;;;;;10.95;8.25;;;;;;;;;;4685301;28;9999749;-72
2022/05/07 11:12:40;;;;;;;9.52;8.00;;;;;;;;;;5028538;28;20211;-72
2022/05/07 11:15:09;;;;;;;8.60;7.10;;;;;;;;;;5031799;28;20211;-72
2022/05/07 11:17:40;;;;;;;5.72;5.00;;;;;;;;;;5031103;28;20224;-72
2022/05/07 11:20:12;;;;;;;6.55;4.57;;;;;;;;;;5031377;28;20562;-72
2022/05/07 11:22:41;;;;;;;7.65;6.70;;;;;;;;;;5031422;28;20203;-72
2022/05/07 11:25:17;;;;;;;7.30;5.78;;;;;;;;;;5033608;28;20568;-72
2022/05/07 11:27:51;;;;;;;8.90;7.20;;;;;;;;;;5033724;28;20642;-72
2022/05/07 11:30:20;;;;;;;10.05;7.88;;;;;;;;;;5032699;28;20671;-72
2022/05/07 11:32:55;;;;;;;7.88;7.03;;;;;;;;;;5031144;28;20667;-72
2022/05/07 11:35:26;;;;;;;8.70;7.25;;;;;;;;;;5032829;28;20203;-72
2022/05/07 11:37:54;;;;;;;9.32;7.40;;;;;;;;;;5032858;28;20224;-72
2022/05/07 11:40:29;;;;;;;8.10;6.75;;;;;;;;;;5030983;28;20254;-72
2022/05/07 11:45:40;;;;;;;10.95;7.15;;;;;;;;;;5021195;28;20196;-72
2022/05/07 11:48:16;;;;;;;9.20;7.40;;;;;;;;;;5033183;28;20223;-72
2022/05/07 11:50:52;;;;;;;8.90;7.88;;;;;;;;;;5024631;28;20735;-72
2022/05/07 11:53:22;;;;;;;9.07;7.43;;;;;;;;;;5021894;28;20211;-73
2022/05/07 11:55:51;;;;;;;11.07;8.20;;;;;;;;;;5027362;28;20226;-72
2022/05/07 11:58:20;;;;;;;10.80;7.25;;;;;;;;;;5027040;28;20224;-72
2022/05/07 12:00:50;;;;;;;8.70;7.28;;;;;;;;;;5032160;28;20207;-72
2022/05/07 12:03:20;;;;;;;11.18;7.75;;;;;;;;;;5032568;28;20564;-72
2022/05/07 12:05:49;;;;;;;8.18;6.60;;;;;;;;;;5033264;28;20206;-72
2022/05/07 12:08:18;;;;;;;10.35;7.78;;;;;;;;;;5027993;28;20224;-71
2022/05/07 12:10:47;;;;;;;10.18;7.82;;;;;;;;;;5025068;28;20261;-71
2022/05/07 12:13:30;;;;;;;11.20;8.10;;;;;;;;;;5029402;28;20282;-72
2022/05/07 12:18:48;;;;;;;9.68;7.28;;;;;;;;;;5033298;28;20338;-72
2022/05/07 12:21:17;;;;;;;8.25;6.97;;;;;;;;;;5033321;28;20200;-72
2022/05/07 12:32:13;;;;;;;7.28;6.55;;;;;;;;;;4997576;28;20212;-72
2022/05/07 12:34:43;;;;;;;6.65;6.07;;;;;;;;;;5031210;28;20298;-72
2022/05/07 12:37:11;;;;;;;9.98;6.90;;;;;;;;;;5029728;28;20223;-72
2022/05/07 12:39:41;;;;;;;10.93;7.90;;;;;;;;;;5032799;28;20208;-72
2022/05/07 12:42:11;;;;;;;10.75;8.68;;;;;;;;;;5033208;28;20594;-73
2022/05/07 12:44:39;;;;;;;13.50;9.02;;;;;;;;;;4689711;28;9999924;-73
2022/05/07 12:47:08;;;;;;;13.02;9.68;;;;;;;;;;5032328;28;20223;-72
2022/05/07 12:49:36;;;;;;;10.55;9.10;;;;;;;;;;5032715;28;20200;-72
2022/05/07 12:52:09;;;;;;;13.35;9.95;;;;;;;;;;5023401;28;20219;-72
2022/05/07 12:54:39;;;;;;;10.27;9.20;;;;;;;;;;5018238;28;20263;-72
2022/05/07 12:57:07;;;;;;;10.40;9.32;;;;;;;;;;5024978;28;20219;-73
2022/05/07 12:59:37;;;;;;;13.32;9.30;;;;;;;;;;5030030;28;20266;-73
2022/05/07 13:02:06;;;;;;;14.55;9.98;;;;;;;;;;5028593;28;20216;-73
2022/05/07 13:04:35;;;;;;;12.88;10.27;;;;;;;;;;5031719;28;20211;-73
2022/05/07 13:07:04;;;;;;;16.40;10.60;;;;;;;;;;5032072;28;20211;-73
2022/05/07 13:09:33;;;;;;;13.27;10.65;;;;;;;;;;5031097;28;20200;-73
2022/05/07 13:12:19;;;;;;;12.05;10.88;;;;;;;;;;5027472;28;20282;-73
2022/05/07 13:14:55;;;;;;;10.98;9.77;;;;;;;;;;5027644;28;20612;-72
2022/05/07 13:17:24;;;;;;;11.13;9.07;;;;;;;;;;5022608;28;20675;-73
2022/05/07 13:19:52;;;;;;;10.75;9.23;;;;;;;;;;5025878;28;20295;-72
2022/05/07 13:22:21;;;;;;;11.93;9.55;;;;;;;;;;5027580;28;20204;-73
2022/05/07 13:24:50;;;;;;;11.80;8.75;;;;;;;;;;5030378;28;20269;-70
2022/05/07 13:27:19;;;;;;;11.60;9.38;;;;;;;;;;5014147;28;20717;-72
2022/05/07 13:29:47;;;;;;;11.23;9.02;;;;;;;;;;5029750;28;20211;-72
2022/05/07 13:32:16;;;;;;;9.90;8.75;;;;;;;;;;5032378;28;20670;-71
2022/05/07 13:34:44;;;;;;;11.70;9.55;;;;;;;;;;5033975;28;20212;-72
2022/05/07 13:37:13;;;;;;;9.60;8.60;;;;;;;;;;5033484;28;20265;-72
2022/05/07 13:39:42;;;;;;;10.32;8.93;;;;;;;;;;5035156;28;20659;-71
2022/05/07 13:42:12;;;;;;;11.90;9.30;;;;;;;;;;5034137;28;20204;-72
2022/05/07 13:44:40;;;;;;;10.27;9.18;;;;;;;;;;5034206;28;20561;-71
2022/05/07 13:47:08;;;;;;;11.45;9.00;;;;;;;;;;5034521;28;20779;-72
2022/05/07 13:49:37;;;;;;;10.82;9.02;;;;;;;;;;5024605;28;20211;-72
2022/05/07 13:52:06;;;;;;;10.60;8.35;;;;;;;;;;5031285;28;20218;-73
2022/05/07 13:54:35;;;;;;;11.15;8.50;;;;;;;;;;5032404;28;20695;-72
2022/05/07 13:57:03;;;;;;;10.13;9.00;;;;;;;;;;5026172;28;20228;-72
2022/05/07 13:59:33;;;;;;;10.77;9.60;;;;;;;;;;5031958;28;20196;-72
2022/05/07 14:02:02;;;;;;;10.70;9.13;;;;;;;;;;5033651;28;20196;-71
2022/05/07 14:04:31;;;;;;;10.73;9.60;;;;;;;;;;5034553;28;20235;-72
2022/05/07 14:07:01;;;;;;;12.35;9.52;;;;;;;;;;5035344;28;20220;-73
2022/05/07 14:09:30;;;;;;;13.70;8.85;;;;;;;;;;5036103;28;20212;-73
2022/05/07 14:12:00;;;;;;;10.73;9.40;;;;;;;;;;5035956;28;20204;-72
2022/05/07 14:14:28;;;;;;;10.75;8.57;;;;;;;;;;5031263;28;20204;-72
2022/05/07 14:16:58;;;;;;;9.95;8.75;;;;;;;;;;5035871;28;20208;-71
2022/05/07 14:19:26;;;;;;;9.45;8.13;;;;;;;;;;5032666;28;20330;-72
2022/05/07 14:21:55;;;;;;;10.00;8.07;;;;;;;;;;5046803;28;20608;-73
2022/05/07 14:24:23;;;;;;;8.73;7.82;;;;;;;;;;5039367;28;20223;-73
2022/05/07 14:26:52;;;;;;;11.80;8.35;;;;;;;;;;5033607;28;20208;-73
2022/05/07 14:29:20;;;;;;;11.18;8.35;;;;;;;;;;5034223;28;20215;-72
2022/05/07 14:31:48;;;;;;;8.57;7.68;;;;;;;;;;5032549;28;20647;-73
2022/05/07 14:34:18;;;;;;;8.65;7.75;;;;;;;;;;5033564;28;20227;-72
2022/05/07 14:36:47;;;;;;;9.10;7.80;;;;;;;;;;5033112;28;20265;-73
2022/05/07 14:39:16;;;;;;;9.90;7.72;;;;;;;;;;5033755;28;20231;-73
2022/05/07 14:41:45;;;;;;;11.10;7.90;;;;;;;;;;5032792;28;20656;-73
2022/05/07 14:44:16;;;;;;;9.05;8.15;;;;;;;;;;5026184;28;20204;-71
2022/05/07 14:46:46;;;;;;;8.45;7.63;;;;;;;;;;5034241;28;20267;-73
2022/05/07 14:49:22;;;;;;;10.23;8.35;;;;;;;;;;5031834;28;20265;-72
2022/05/07 14:51:51;;;;;;;10.15;8.20;;;;;;;;;;5028887;28;20732;-73
2022/05/07 14:54:40;;;;;;;11.25;9.07;;;;;;;;;;5024842;28;20293;-72
2022/05/07 14:57:08;;;;;;;12.02;9.38;;;;;;;;;;5032201;28;20366;-73
2022/05/07 14:59:37;;;;;;;10.82;9.10;;;;;;;;;;5030397;28;20215;-73
2022/05/07 15:02:05;;;;;;;10.18;8.90;;;;;;;;;;5029795;28;20261;-73
2022/05/07 15:04:37;;;;;;;9.38;5.90;;;;;;;;;;5034139;28;20261;-74
2022/05/07 15:07:08;;;;;;;6.00;5.35;;;;;;;;;;5021270;28;20215;-74
2022/05/07 15:12:23;;;;;;;7.28;6.57;;;;;;;;;;5029146;28;20197;-72
2022/05/07 15:14:52;;;;;;;8.80;6.32;;;;;;;;;;5033798;28;20613;-73
2022/05/07 15:17:20;;;;;;;8.95;6.80;;;;;;;;;;5030957;28;20223;-74
2022/05/07 15:19:50;;;;;;;8.75;6.40;;;;;;;;;;5033802;28;20239;-72
2022/05/07 15:22:18;;;;;;;8.40;6.40;;;;;;;;;;5034541;28;20682;-72
2022/05/07 15:24:47;;;;;;;9.25;6.50;;;;;;;;;;5034018;28;20200;-72
2022/05/07 15:27:15;;;;;;;9.02;6.38;;;;;;;;;;5033978;28;20228;-72
2022/05/07 15:29:44;;;;;;;8.27;7.00;;;;;;;;;;5034497;28;20249;-72
2022/05/07 15:37:45;;;;;;;8.57;6.38;;;;;;;;;;5034226;28;20648;-72